North Battleford Airport
CYQW : now visible

Airfield :











YOU CAN JOIN US ON...

 
LOGIN :

Register | Disclaimer

   EN    FR    IT 

 









Legend :    VFR   Marginal VFR   IFR   Intensive IFR   Very Intensive IFR
Visi :
Ceiling :
>= 8 km
>= 3000ft
5 to 8 km
1000 to 3000 ft
1500m to 5 km
500 to 1000 ft
800 to 1500m
200 to 500 ft
< 800m
< 200 ft
Symbols :   Thunderstorms  Fog  Heavy snow  Heavy precipitations  Wind > 20 kt






- Airport Elevation : 1799 ft
- IATA code : YQW


CYQW - North Battleford

CURRENT METAR :
  • 021500Z AUTO 09004KT 9SM CLR M31/M34 A3047 RMK SLP391

EXPIRED METARs :
  • 021400Z AUTO 00000KT 9SM CLR M33/M36 A3048 RMK SLP395
  • 021300Z AUTO VRB02KT 9SM CLR M33/M36 A3048 RMK PRESRR SLP396

TAF TAF CYQW
Valid from the 02 at 12:00 until the 03 at 00:00 UTC


021140Z 0212/0224 VRB03KT P6SM SKC
BECMG 0213/0215 09007KT
FM021800 10010KT P6SM BKN080 OVC160
FM022100 11012KT P6SM OVC060
TEMPO 0221/0224 3SM -SN OVC030
BECMG 0222/0224 11018KT RMK FCST BASED ON AUTO OBS. NXT FCST BY 021800Z
CZWG FIR / North America



MET'MAP, your aeronautical weather chart ! - Copyright ORBIFLY December 2007 - Disclaimer

ORBIFLY MET'MAP TEAM :

Programming & Development : Alexandra Zaïnal
Original concept : Baudouin d'Aumeries
Technical & hardware support : Manuel Goepfert
Assistance : Marc-Olivier Méhu




SOURCES & CREDITS :

   NOAA       Earth
Advisory